createdAt,value
2017-07-17T00:00:49.688Z,15.80
2017-07-17T00:03:15.975Z,15.70
2017-07-17T00:05:42.270Z,15.50
2017-07-17T00:08:08.554Z,15.40
2017-07-17T00:10:34.842Z,15.50
2017-07-17T00:13:01.115Z,15.40
2017-07-17T00:15:27.421Z,15.40
2017-07-17T00:17:54.439Z,15.40
2017-07-17T00:20:20.718Z,15.40
2017-07-17T00:22:47.026Z,15.20
2017-07-17T00:25:14.072Z,15.10
2017-07-17T00:27:41.102Z,15.10
2017-07-17T00:30:08.129Z,15.10
2017-07-17T00:32:34.407Z,15.10
2017-07-17T00:35:00.688Z,15.30
2017-07-17T00:37:26.966Z,15.10
2017-07-17T00:39:53.267Z,15.20
2017-07-17T00:42:19.771Z,15.10
2017-07-17T00:44:46.110Z,15.30
2017-07-17T00:47:12.396Z,15.10
2017-07-17T00:49:38.702Z,15.00
2017-07-17T00:52:05.006Z,14.90
2017-07-17T00:54:31.288Z,14.80
2017-07-17T00:56:57.568Z,14.70
2017-07-17T00:59:23.831Z,14.70
2017-07-17T01:01:50.127Z,14.70
2017-07-17T01:04:16.415Z,14.50
2017-07-17T01:06:42.708Z,14.60
2017-07-17T01:09:09.737Z,14.50
2017-07-17T01:11:36.019Z,14.40
2017-07-17T01:14:02.302Z,14.70
2017-07-17T01:16:29.002Z,14.60
2017-07-17T01:18:55.979Z,14.50
2017-07-17T01:21:23.084Z,14.50
2017-07-17T01:23:49.362Z,14.40
2017-07-17T01:26:15.628Z,14.50
2017-07-17T01:28:41.916Z,14.40
2017-07-17T01:31:08.219Z,14.50
2017-07-17T01:33:34.511Z,14.50
2017-07-17T01:36:00.811Z,14.50
2017-07-17T01:38:27.102Z,14.50
2017-07-17T01:40:53.421Z,14.50
2017-07-17T01:43:19.710Z,14.60
2017-07-17T01:45:46.744Z,14.40
2017-07-17T01:48:13.067Z,14.30
2017-07-17T01:50:39.379Z,14.20
2017-07-17T01:53:05.690Z,14.00
2017-07-17T01:55:31.981Z,14.00
2017-07-17T01:57:58.299Z,14.10
2017-07-17T02:00:25.370Z,14.30
2017-07-17T02:02:51.691Z,14.30
2017-07-17T02:05:18.760Z,14.20
2017-07-17T02:07:45.072Z,14.10
2017-07-17T02:10:12.105Z,14.20
2017-07-17T02:12:39.149Z,14.30
2017-07-17T02:15:06.174Z,14.10
2017-07-17T02:17:32.461Z,14.00
2017-07-17T02:19:58.734Z,14.20
2017-07-17T02:22:25.046Z,14.30
2017-07-17T02:24:51.315Z,14.50
2017-07-17T02:27:18.359Z,14.10
2017-07-17T02:29:45.400Z,14.10
2017-07-17T02:32:11.694Z,14.00
2017-07-17T02:34:37.995Z,14.00
2017-07-17T02:37:04.280Z,14.00
2017-07-17T02:39:30.560Z,14.20
2017-07-17T02:41:56.850Z,14.20
2017-07-17T02:44:23.135Z,14.20
2017-07-17T02:46:49.398Z,14.20
2017-07-17T02:49:15.691Z,14.10
2017-07-17T02:51:41.991Z,14.00
2017-07-17T02:54:08.290Z,14.00
2017-07-17T02:56:34.567Z,14.00
2017-07-17T02:59:00.863Z,13.90
2017-07-17T03:01:27.891Z,13.60
2017-07-17T03:03:54.184Z,13.60
2017-07-17T03:06:20.495Z,13.70
2017-07-17T03:08:46.807Z,14.00
2017-07-17T03:11:13.854Z,14.20
2017-07-17T03:13:40.874Z,14.40
2017-07-17T03:16:07.161Z,14.30
2017-07-17T03:18:33.455Z,14.10
2017-07-17T03:20:59.790Z,14.10
2017-07-17T03:23:26.124Z,14.00
2017-07-17T03:25:52.495Z,14.10
2017-07-17T03:28:18.798Z,14.10
2017-07-17T03:30:45.106Z,14.00
2017-07-17T03:33:12.155Z,14.00
2017-07-17T03:35:39.194Z,14.00
2017-07-17T03:38:05.524Z,13.90
2017-07-17T03:40:33.492Z,13.80
2017-07-17T03:43:00.521Z,13.80
2017-07-17T03:45:26.806Z,13.70
2017-07-17T03:47:53.082Z,13.70
2017-07-17T03:50:19.404Z,13.50
2017-07-17T03:52:45.771Z,13.70
2017-07-17T03:55:12.107Z,13.90
2017-07-17T03:57:38.407Z,13.80
2017-07-17T04:00:05.473Z,13.60
2017-07-17T04:02:31.832Z,13.60
2017-07-17T04:04:58.179Z,13.70
2017-07-17T04:07:24.490Z,14.00
2017-07-17T04:09:50.805Z,14.10
2017-07-17T04:12:17.130Z,13.80
2017-07-17T04:14:43.443Z,13.80
2017-07-17T04:17:10.510Z,13.50
2017-07-17T04:19:36.827Z,13.50
2017-07-17T04:22:03.870Z,13.70
2017-07-17T04:24:30.194Z,13.70
2017-07-17T04:26:56.523Z,13.70
2017-07-17T04:29:23.557Z,14.00
2017-07-17T04:31:56.867Z,14.00
2017-07-17T04:34:23.174Z,14.00
2017-07-17T04:36:49.490Z,14.20
2017-07-17T04:39:15.816Z,14.10
2017-07-17T04:41:42.161Z,14.20
2017-07-17T04:44:08.475Z,14.20
2017-07-17T04:46:34.804Z,14.30
2017-07-17T04:49:01.114Z,14.50
2017-07-17T04:51:27.414Z,14.30
2017-07-17T04:53:54.454Z,14.50
2017-07-17T04:56:21.504Z,14.50
2017-07-17T04:58:48.538Z,14.40
2017-07-17T05:01:14.859Z,14.40
2017-07-17T05:03:41.157Z,14.40
2017-07-17T05:06:07.450Z,14.30
2017-07-17T05:08:34.481Z,14.20
2017-07-17T05:11:01.317Z,14.20
2017-07-17T05:13:28.373Z,14.20
2017-07-17T05:15:55.424Z,14.30
2017-07-17T05:18:22.461Z,14.30
2017-07-17T05:20:48.738Z,14.30
2017-07-17T05:23:15.050Z,14.50
2017-07-17T05:25:41.351Z,14.60
2017-07-17T05:28:07.671Z,14.70
2017-07-17T05:30:34.747Z,14.60
2017-07-17T05:33:01.822Z,14.60
2017-07-17T05:35:28.130Z,14.60
2017-07-17T05:37:54.451Z,14.50
2017-07-17T05:40:20.792Z,14.60
2017-07-17T05:42:47.098Z,14.80
2017-07-17T05:45:13.398Z,14.70
2017-07-17T05:47:39.704Z,14.90
2017-07-17T05:50:06.123Z,14.70
2017-07-17T05:52:39.475Z,14.80
2017-07-17T05:55:05.777Z,15.10
2017-07-17T05:57:32.079Z,14.90
2017-07-17T05:59:58.377Z,14.90
2017-07-17T06:02:24.687Z,15.00
2017-07-17T06:04:50.988Z,15.30
2017-07-17T06:07:17.267Z,15.20
2017-07-17T06:09:44.335Z,15.40
2017-07-17T06:12:10.659Z,15.30
2017-07-17T06:14:36.959Z,15.30
2017-07-17T06:17:04.019Z,15.50
2017-07-17T06:19:30.329Z,15.50
2017-07-17T06:21:56.668Z,15.60
2017-07-17T06:24:22.955Z,15.20
2017-07-17T06:26:49.297Z,15.20
2017-07-17T06:29:16.384Z,15.20
2017-07-17T06:31:43.431Z,15.50
2017-07-17T06:34:09.736Z,15.50
2017-07-17T06:36:36.055Z,15.50
2017-07-17T06:39:02.395Z,15.40
2017-07-17T06:41:28.701Z,15.50
2017-07-17T06:43:55.111Z,15.30
2017-07-17T06:46:21.436Z,15.30
2017-07-17T06:48:48.467Z,15.60
2017-07-17T06:51:15.495Z,15.90
2017-07-17T06:53:42.221Z,15.90
2017-07-17T06:56:08.541Z,16.00
2017-07-17T06:58:34.813Z,15.90
2017-07-17T07:01:01.119Z,16.10
2017-07-17T07:03:27.487Z,16.10
2017-07-17T07:05:53.828Z,16.10
2017-07-17T07:08:20.146Z,16.20
2017-07-17T07:10:47.252Z,16.30
2017-07-17T07:13:14.005Z,16.30
2017-07-17T07:15:40.388Z,16.20
2017-07-17T07:18:06.687Z,16.20
2017-07-17T07:20:32.977Z,16.30
2017-07-17T07:22:59.273Z,16.50
2017-07-17T07:25:25.995Z,16.50
2017-07-17T07:27:53.141Z,16.40
2017-07-17T07:30:19.499Z,16.40
2017-07-17T07:32:45.835Z,16.70
2017-07-17T07:35:12.143Z,16.60
2017-07-17T07:37:38.487Z,17.00
2017-07-17T07:40:04.807Z,17.20
2017-07-17T07:42:31.128Z,17.00
2017-07-17T07:44:58.187Z,16.90
2017-07-17T07:47:24.492Z,16.80
2017-07-17T07:49:51.540Z,16.70
2017-07-17T07:52:17.843Z,16.70
2017-07-17T07:54:44.148Z,16.60
2017-07-17T07:57:10.448Z,16.40
2017-07-17T07:59:36.758Z,16.60
2017-07-17T08:02:03.787Z,17.00
2017-07-17T08:04:30.087Z,17.00
2017-07-17T08:06:56.393Z,16.90
2017-07-17T08:09:22.822Z,17.00
2017-07-17T08:11:49.145Z,17.20
2017-07-17T08:14:15.449Z,17.20
2017-07-17T08:16:41.752Z,17.60
2017-07-17T08:19:08.048Z,17.50
2017-07-17T08:21:35.239Z,17.40
2017-07-17T08:24:01.546Z,17.10
2017-07-17T08:26:27.867Z,17.00
2017-07-17T08:28:54.164Z,17.10
2017-07-17T08:31:21.211Z,17.30
2017-07-17T08:33:47.520Z,17.30
2017-07-17T08:36:13.827Z,17.40
2017-07-17T08:38:40.107Z,17.50
2017-07-17T08:41:06.434Z,17.80
2017-07-17T08:43:33.454Z,17.90
2017-07-17T08:46:00.434Z,17.90
2017-07-17T08:48:26.739Z,17.60
2017-07-17T08:50:53.782Z,17.60
2017-07-17T08:53:20.087Z,17.50
2017-07-17T08:55:46.387Z,17.80
2017-07-17T08:58:12.702Z,17.70
2017-07-17T09:00:39.729Z,18.00
2017-07-17T09:03:06.059Z,18.00
2017-07-17T09:05:33.086Z,18.10
2017-07-17T09:07:59.396Z,18.00
2017-07-17T09:10:25.704Z,17.90
2017-07-17T09:12:52.026Z,17.90
2017-07-17T09:15:18.310Z,17.90
2017-07-17T09:17:44.611Z,17.80
2017-07-17T09:20:10.922Z,18.10
2017-07-17T09:22:37.204Z,18.30
2017-07-17T09:25:03.917Z,18.50
2017-07-17T09:27:30.206Z,18.30
2017-07-17T09:29:56.494Z,17.70
2017-07-17T09:32:22.827Z,17.60
2017-07-17T09:34:49.104Z,17.60
2017-07-17T09:37:15.428Z,17.80
2017-07-17T09:39:41.740Z,18.00
2017-07-17T09:42:08.051Z,18.20
2017-07-17T09:44:34.395Z,18.00
2017-07-17T09:47:00.791Z,18.10
2017-07-17T09:49:27.155Z,17.80
2017-07-17T09:51:53.580Z,17.70
2017-07-17T09:54:20.690Z,18.10
2017-07-17T09:56:47.061Z,18.00
2017-07-17T09:59:13.396Z,18.10
2017-07-17T10:01:40.431Z,18.50
2017-07-17T10:04:08.501Z,18.80
2017-07-17T10:06:34.807Z,18.80
2017-07-17T10:09:01.103Z,18.60
2017-07-17T10:11:27.452Z,18.30
2017-07-17T10:13:54.134Z,18.30
2017-07-17T10:16:21.183Z,18.60
2017-07-17T10:18:48.346Z,18.60
2017-07-17T10:21:15.378Z,18.80
2017-07-17T10:23:42.435Z,18.60
2017-07-17T10:26:09.490Z,18.70
2017-07-17T10:28:35.831Z,18.60
2017-07-17T10:31:02.153Z,18.90
2017-07-17T10:33:29.207Z,18.90
2017-07-17T10:35:55.582Z,18.80
2017-07-17T10:38:21.916Z,19.20
2017-07-17T10:40:48.227Z,19.40
2017-07-17T10:43:14.550Z,19.30
2017-07-17T10:45:40.867Z,19.50
2017-07-17T10:48:07.191Z,19.10
2017-07-17T10:50:33.531Z,18.80
2017-07-17T10:52:59.841Z,18.60
2017-07-17T10:55:26.879Z,18.70
2017-07-17T10:57:53.927Z,18.80
2017-07-17T11:00:20.985Z,19.10
2017-07-17T11:02:47.287Z,19.10
2017-07-17T11:05:13.582Z,19.40
2017-07-17T11:07:39.883Z,19.60
2017-07-17T11:10:06.186Z,19.90
2017-07-17T11:12:33.251Z,19.20
2017-07-17T11:14:59.579Z,19.10
2017-07-17T11:17:25.892Z,19.40
2017-07-17T11:19:59.894Z,19.60
2017-07-17T11:22:26.947Z,19.50
2017-07-17T11:24:54.010Z,19.60
2017-07-17T11:27:20.398Z,19.60
2017-07-17T11:29:46.720Z,19.30
2017-07-17T11:32:13.105Z,19.30
2017-07-17T11:34:39.390Z,19.20
2017-07-17T11:37:05.726Z,19.40
2017-07-17T11:39:32.039Z,19.60
2017-07-17T11:41:58.379Z,19.40
2017-07-17T11:44:24.683Z,19.60
2017-07-17T11:57:00.785Z,19.60
2017-07-17T11:59:27.078Z,19.50
2017-07-17T12:01:53.383Z,19.50
2017-07-17T12:04:19.690Z,19.80
2017-07-17T12:06:46.025Z,20.00
2017-07-17T12:09:12.279Z,20.10
2017-07-17T12:11:38.607Z,20.10
2017-07-17T12:14:04.892Z,20.30
2017-07-17T12:16:31.170Z,20.40
2017-07-17T12:18:57.500Z,20.40
2017-07-17T12:21:23.825Z,20.40
2017-07-17T12:23:50.140Z,20.60
2017-07-17T12:26:16.449Z,21.00
2017-07-17T12:28:42.746Z,21.00
2017-07-17T12:31:09.835Z,20.30
2017-07-17T12:33:36.115Z,20.20
2017-07-17T12:36:02.435Z,20.10
2017-07-17T12:38:29.510Z,20.30
2017-07-17T12:40:55.827Z,20.20
2017-07-17T12:43:22.103Z,20.40
2017-07-17T12:45:48.384Z,20.90
2017-07-17T12:48:14.693Z,21.40
2017-07-17T12:50:41.004Z,21.20
2017-07-17T12:53:07.314Z,20.90
2017-07-17T12:55:33.596Z,21.00
2017-07-17T12:57:59.915Z,20.90
2017-07-17T13:00:26.289Z,20.60
2017-07-17T13:02:52.756Z,20.50
2017-07-17T13:05:19.150Z,20.40
2017-07-17T13:07:45.545Z,20.40
2017-07-17T13:10:12.674Z,20.20
2017-07-17T13:12:39.039Z,20.20
2017-07-17T13:15:05.411Z,20.40
2017-07-17T13:17:31.772Z,20.50
2017-07-17T13:19:58.131Z,20.30
2017-07-17T13:22:31.454Z,20.30
2017-07-17T13:24:57.764Z,20.10
2017-07-17T13:27:24.800Z,20.50
2017-07-17T13:29:51.111Z,20.50
2017-07-17T13:32:17.410Z,20.40
2017-07-17T13:34:43.721Z,20.30
2017-07-17T13:37:10.104Z,20.40
2017-07-17T13:39:36.414Z,20.20
2017-07-17T13:42:02.717Z,20.40
2017-07-17T13:44:29.027Z,20.40
2017-07-17T13:46:56.078Z,20.00
2017-07-17T13:49:22.398Z,20.00
2017-07-17T13:51:49.432Z,20.10
2017-07-17T13:54:15.753Z,20.10
2017-07-17T13:56:42.033Z,20.20
2017-07-17T13:59:08.347Z,20.20
2017-07-17T14:01:34.633Z,20.10
2017-07-17T14:04:00.946Z,20.40
2017-07-17T14:06:27.230Z,20.60
2017-07-17T14:08:53.557Z,20.90
2017-07-17T14:11:19.852Z,20.80
2017-07-17T14:13:46.104Z,21.20
2017-07-17T14:16:12.415Z,21.80
2017-07-17T14:18:38.699Z,21.30
2017-07-17T14:21:04.979Z,21.30
2017-07-17T14:23:31.277Z,21.30
2017-07-17T14:25:57.557Z,21.10
2017-07-17T14:28:23.843Z,21.50
2017-07-17T14:30:50.160Z,21.70
2017-07-17T14:33:16.470Z,21.40
2017-07-17T14:35:42.797Z,21.30
2017-07-17T14:38:09.102Z,21.20
2017-07-17T14:40:36.143Z,21.10
2017-07-17T14:43:03.172Z,21.30
2017-07-17T14:45:29.460Z,21.30
2017-07-17T14:47:55.762Z,21.00
2017-07-17T14:50:22.071Z,21.00
2017-07-17T14:52:48.404Z,21.40
2017-07-17T14:55:14.718Z,22.10
2017-07-17T14:57:41.036Z,22.80
2017-07-17T15:00:07.402Z,22.70
2017-07-17T15:02:34.484Z,22.30
2017-07-17T15:05:00.786Z,22.30
2017-07-17T15:07:27.069Z,22.10
2017-07-17T15:09:53.346Z,22.00
2017-07-17T15:12:20.398Z,22.00
2017-07-17T15:14:47.446Z,21.90
2017-07-17T15:17:21.622Z,21.70
2017-07-17T15:19:47.910Z,21.60
2017-07-17T15:22:14.207Z,21.70
2017-07-17T15:24:41.257Z,21.30
2017-07-17T15:27:07.577Z,21.20
2017-07-17T15:29:33.902Z,21.60
2017-07-17T15:32:00.958Z,22.00
2017-07-17T15:34:27.281Z,22.00
2017-07-17T15:36:53.619Z,22.10
2017-07-17T15:39:19.892Z,23.20
2017-07-17T15:41:46.193Z,22.60
2017-07-17T15:44:13.227Z,22.60
2017-07-17T15:46:39.523Z,22.50
2017-07-17T15:49:05.843Z,23.10
2017-07-17T15:51:32.132Z,22.70
2017-07-17T15:53:58.422Z,23.30
2017-07-17T15:56:24.712Z,23.80
2017-07-17T15:58:51.013Z,22.50
2017-07-17T16:01:17.282Z,21.90
2017-07-17T16:03:43.569Z,22.20
2017-07-17T16:06:10.603Z,22.40
2017-07-17T16:08:37.657Z,23.10
2017-07-17T16:11:04.702Z,24.80
2017-07-17T16:13:30.992Z,24.80
2017-07-17T16:15:57.288Z,25.60
2017-07-17T16:18:24.340Z,27.00
2017-07-17T16:20:50.641Z,27.00
2017-07-17T16:23:16.932Z,26.20
2017-07-17T16:25:43.236Z,26.20
2017-07-17T16:28:09.524Z,25.40
2017-07-17T16:30:35.824Z,23.90
2017-07-17T16:33:02.106Z,23.00
2017-07-17T16:35:29.147Z,23.20
2017-07-17T16:37:55.446Z,23.10
2017-07-17T16:40:21.759Z,24.10
2017-07-17T16:42:55.215Z,25.70
2017-07-17T16:45:22.243Z,23.40
2017-07-17T16:47:48.526Z,23.30
2017-07-17T16:50:14.850Z,22.80
2017-07-17T16:52:41.153Z,22.30
2017-07-17T16:55:07.469Z,21.70
2017-07-17T16:57:34.504Z,21.80
2017-07-17T17:00:00.791Z,21.80
2017-07-17T17:02:27.081Z,21.30
2017-07-17T17:04:54.127Z,21.10
2017-07-17T17:07:21.158Z,21.50
2017-07-17T17:09:47.451Z,21.40
2017-07-17T17:12:13.775Z,22.80
2017-07-17T17:14:40.057Z,24.20
2017-07-17T17:17:07.087Z,23.20
2017-07-17T17:19:33.393Z,23.10
2017-07-17T17:21:59.685Z,22.70
2017-07-17T17:24:25.995Z,22.60
2017-07-17T17:26:53.034Z,23.40
2017-07-17T17:29:19.331Z,23.40
2017-07-17T17:31:45.603Z,24.30
2017-07-17T17:34:12.639Z,25.40
2017-07-17T17:36:38.923Z,25.40
2017-07-17T17:39:05.237Z,25.50
2017-07-17T17:41:31.536Z,25.00
2017-07-17T17:43:57.796Z,25.30
2017-07-17T17:46:24.089Z,24.00
2017-07-17T17:48:51.135Z,25.10
2017-07-17T17:51:17.430Z,25.00
2017-07-17T17:53:50.720Z,25.50
2017-07-17T17:56:17.053Z,26.50
2017-07-17T17:58:43.374Z,26.40
2017-07-17T18:01:09.687Z,25.70
2017-07-17T18:03:35.993Z,25.00
2017-07-17T18:06:02.329Z,25.40
2017-07-17T18:08:29.355Z,25.00
2017-07-17T18:10:56.416Z,25.90
2017-07-17T18:13:23.465Z,25.60
2017-07-17T18:15:50.516Z,26.10
2017-07-17T18:18:17.664Z,25.70
2017-07-17T18:20:43.954Z,25.70
2017-07-17T18:23:10.241Z,25.20
2017-07-17T18:25:36.539Z,24.30
2017-07-17T18:28:03.594Z,24.50
2017-07-17T18:30:30.656Z,24.20
2017-07-17T18:32:57.670Z,23.50
2017-07-17T18:35:23.958Z,23.50
2017-07-17T18:37:50.250Z,23.40
2017-07-17T18:40:17.272Z,23.40
2017-07-17T18:42:43.598Z,23.40
2017-07-17T18:45:09.887Z,24.10
2017-07-17T18:47:36.162Z,23.80
2017-07-17T18:50:02.468Z,24.30
2017-07-17T18:52:28.764Z,24.00
2017-07-17T18:54:55.078Z,23.90
2017-07-17T18:57:21.379Z,23.80
2017-07-17T18:59:48.546Z,23.60
2017-07-17T19:02:14.840Z,23.20
2017-07-17T19:04:41.123Z,22.90
2017-07-17T19:07:07.406Z,22.90
2017-07-17T19:09:33.677Z,22.70
2017-07-17T19:12:00.738Z,21.80
2017-07-17T19:14:27.040Z,21.70
2017-07-17T19:16:53.329Z,20.80
2017-07-17T19:19:19.609Z,20.80
2017-07-17T19:21:45.930Z,20.90
2017-07-17T19:24:12.212Z,21.00
2017-07-17T19:26:38.522Z,21.20
2017-07-17T19:29:04.810Z,20.90
2017-07-17T19:31:31.836Z,20.80
2017-07-17T19:33:58.139Z,20.80
2017-07-17T19:36:24.399Z,20.70
2017-07-17T19:38:50.682Z,20.50
2017-07-17T19:41:16.959Z,20.40
2017-07-17T19:43:43.281Z,20.50
2017-07-17T19:46:09.542Z,20.50
2017-07-17T19:48:36.566Z,21.00
2017-07-17T19:51:03.592Z,20.70
2017-07-17T19:53:29.885Z,20.60
2017-07-17T19:55:56.167Z,20.40
2017-07-17T19:58:22.462Z,20.20
2017-07-17T20:00:48.762Z,20.10
2017-07-17T20:03:15.075Z,20.00
2017-07-17T20:05:42.109Z,19.60
2017-07-17T20:08:08.410Z,19.60
2017-07-17T20:10:34.690Z,19.20
2017-07-17T20:13:00.963Z,18.40
2017-07-17T20:15:27.259Z,18.50
2017-07-17T20:17:53.571Z,18.50
2017-07-17T20:20:19.944Z,19.00
2017-07-17T20:22:46.269Z,18.70
2017-07-17T20:25:12.637Z,18.90
2017-07-17T20:27:38.937Z,19.10
2017-07-17T20:30:05.258Z,18.80
2017-07-17T20:32:31.922Z,18.70
2017-07-17T20:34:58.268Z,18.40
2017-07-17T20:37:24.601Z,18.60
2017-07-17T20:39:51.629Z,18.70
2017-07-17T20:42:17.916Z,18.70
2017-07-17T20:44:44.178Z,18.70
2017-07-17T20:47:10.458Z,18.70
2017-07-17T20:49:36.810Z,18.90
2017-07-17T20:52:03.152Z,18.70
2017-07-17T20:54:29.667Z,18.40
2017-07-17T20:56:58.399Z,18.10
2017-07-17T20:59:33.813Z,17.80
2017-07-17T21:02:08.449Z,17.60
2017-07-17T21:04:35.752Z,17.60
2017-07-17T21:07:02.418Z,17.60
2017-07-17T21:09:28.895Z,17.80
2017-07-17T21:11:55.166Z,17.70
2017-07-17T21:14:22.186Z,17.80
2017-07-17T21:16:48.474Z,17.80
2017-07-17T21:19:14.765Z,18.10
2017-07-17T21:21:41.785Z,18.10
2017-07-17T21:24:08.987Z,18.00
2017-07-17T21:26:35.267Z,18.10
2017-07-17T21:29:01.561Z,18.00
2017-07-17T21:31:27.892Z,17.60
2017-07-17T21:33:54.655Z,17.60
2017-07-17T21:36:21.785Z,17.80
2017-07-17T21:38:55.332Z,17.80
2017-07-17T21:41:21.608Z,17.50
2017-07-17T21:43:47.926Z,17.30
2017-07-17T21:46:14.252Z,17.30
2017-07-17T21:48:40.735Z,17.50
2017-07-17T21:51:07.823Z,17.40
2017-07-17T21:53:34.148Z,17.40
2017-07-17T21:56:00.458Z,17.60
2017-07-17T21:58:27.506Z,17.50
2017-07-17T22:00:54.587Z,17.70
2017-07-17T22:03:20.887Z,17.60
2017-07-17T22:05:47.935Z,17.60
2017-07-17T22:08:14.235Z,17.50
2017-07-17T22:10:40.547Z,17.50
2017-07-17T22:13:07.651Z,17.40
2017-07-17T22:15:34.686Z,16.60
2017-07-17T22:18:01.294Z,16.50
2017-07-17T22:20:27.634Z,16.30
2017-07-17T22:22:53.925Z,16.70
2017-07-17T22:25:20.253Z,16.90
2017-07-17T22:27:46.549Z,17.00
2017-07-17T22:30:13.579Z,16.90
2017-07-17T22:32:39.863Z,16.90
2017-07-17T22:35:06.153Z,17.00
2017-07-17T22:37:33.446Z,16.70
2017-07-17T22:39:59.734Z,16.60
2017-07-17T22:42:26.008Z,16.80
2017-07-17T22:44:52.265Z,16.80
2017-07-17T22:47:18.575Z,16.80
2017-07-17T22:49:44.850Z,17.10
2017-07-17T22:52:11.895Z,16.90
2017-07-17T22:54:38.913Z,16.80
2017-07-17T22:57:05.207Z,16.80
2017-07-17T22:59:31.502Z,16.80
2017-07-17T23:01:57.823Z,16.30
2017-07-17T23:04:24.852Z,16.60
2017-07-17T23:06:51.133Z,16.50
2017-07-17T23:09:17.404Z,16.40
2017-07-17T23:11:43.694Z,16.30
2017-07-17T23:14:09.975Z,15.60
2017-07-17T23:16:36.246Z,15.90
2017-07-17T23:19:02.551Z,15.80
2017-07-17T23:21:28.834Z,15.50
2017-07-17T23:23:56.038Z,15.70
2017-07-17T23:26:23.068Z,15.40
2017-07-17T23:28:49.346Z,15.40
2017-07-17T23:31:15.616Z,15.00
2017-07-17T23:33:41.902Z,14.70
2017-07-17T23:36:08.175Z,15.00
2017-07-17T23:38:34.454Z,14.60
2017-07-17T23:41:00.737Z,14.90
2017-07-17T23:43:27.018Z,15.30
2017-07-17T23:45:53.297Z,15.40
2017-07-17T23:48:19.579Z,15.20
2017-07-17T23:50:45.858Z,14.90
2017-07-17T23:53:12.136Z,14.80
2017-07-17T23:55:38.438Z,15.40
2017-07-17T23:58:05.444Z,15.90
